createdAt,value
2023-05-04T00:01:41.226Z,97647.78
2023-05-04T00:03:43.873Z,97641.59
2023-05-04T00:05:46.576Z,97639.94
2023-05-04T00:07:49.131Z,97639.19
2023-05-04T00:09:53.081Z,97642.78
2023-05-04T00:11:55.621Z,97638.38
2023-05-04T00:13:58.154Z,97635.03
2023-05-04T00:16:00.774Z,97639.38
2023-05-04T00:18:03.415Z,97635.44
2023-05-04T00:20:07.428Z,97634.16
2023-05-04T00:22:10.059Z,97627.56
2023-05-04T00:24:12.629Z,97624.06
2023-05-04T00:26:16.621Z,97619.84
2023-05-04T00:28:19.222Z,97617.25
2023-05-04T00:30:21.765Z,97623.41
2023-05-04T00:32:24.422Z,97617.38
2023-05-04T00:34:27.043Z,97620.06
2023-05-04T00:36:29.608Z,97623.16
2023-05-04T00:38:31.238Z,97616.75
2023-05-04T00:40:35.128Z,97614.38
2023-05-04T00:42:39.017Z,97613.47
2023-05-04T00:44:42.294Z,97607.44
2023-05-04T00:46:45.143Z,97616.97
2023-05-04T00:48:50.105Z,97607.94
2023-05-04T00:50:52.670Z,97608.13
2023-05-04T00:52:57.256Z,97607.44
2023-05-04T00:55:01.912Z,97615.34
2023-05-04T00:57:04.546Z,97608.53
2023-05-04T00:59:08.485Z,97620.63
2023-05-04T01:01:11.537Z,97610.25
2023-05-04T01:03:14.425Z,97609.19
2023-05-04T01:05:17.290Z,97610.13
2023-05-04T01:07:26.845Z,97608.75
2023-05-04T01:09:36.988Z,97610.00
2023-05-04T01:11:45.127Z,97599.78
2023-05-04T01:13:48.184Z,97611.94
2023-05-04T01:15:52.720Z,97601.53
2023-05-04T01:17:55.362Z,97616.41
2023-05-04T01:19:58.022Z,97607.69
2023-05-04T01:22:01.947Z,97603.28
2023-05-04T01:24:04.836Z,97608.53
2023-05-04T01:26:15.260Z,97616.28
2023-05-04T01:28:20.429Z,97616.34
2023-05-04T01:30:27.055Z,97615.56
2023-05-04T01:32:31.446Z,97617.28
2023-05-04T01:34:34.942Z,97614.72
2023-05-04T01:36:37.970Z,97617.50
2023-05-04T01:38:43.146Z,97615.78
2023-05-04T01:40:45.739Z,97620.34
2023-05-04T01:42:48.377Z,97622.72
2023-05-04T01:44:51.661Z,97612.56
2023-05-04T01:46:54.324Z,97615.97
2023-05-04T01:48:57.004Z,97612.72
2023-05-04T01:50:59.577Z,97609.22
2023-05-04T01:53:02.163Z,97618.84
2023-05-04T01:55:07.213Z,97609.53
2023-05-04T01:57:10.011Z,97612.19
2023-05-04T01:59:12.602Z,97608.66
2023-05-04T02:01:15.209Z,97607.72
2023-05-04T02:03:17.893Z,97607.88
2023-05-04T02:05:20.498Z,97601.00
2023-05-04T02:07:23.114Z,97600.16
2023-05-04T02:09:26.165Z,97598.47
2023-05-04T02:11:30.125Z,97596.81
2023-05-04T02:13:32.697Z,97596.75
2023-05-04T02:15:35.273Z,97605.69
2023-05-04T02:17:37.875Z,97600.81
2023-05-04T02:19:40.471Z,97614.75
2023-05-04T02:21:43.073Z,97607.84
2023-05-04T02:23:45.698Z,97604.31
2023-05-04T02:25:48.276Z,97598.47
2023-05-04T02:27:52.312Z,97597.66
2023-05-04T02:29:55.005Z,97602.00
2023-05-04T02:31:57.608Z,97589.09
2023-05-04T02:34:04.817Z,97603.69
2023-05-04T02:36:07.765Z,97600.28
2023-05-04T02:38:10.435Z,97596.84
2023-05-04T02:40:14.253Z,97605.50
2023-05-04T02:42:17.953Z,97592.56
2023-05-04T02:44:21.895Z,97588.41
2023-05-04T02:46:26.696Z,97587.56
2023-05-04T02:48:29.375Z,97592.66
2023-05-04T02:50:31.976Z,97583.94
2023-05-04T02:52:34.531Z,97596.09
2023-05-04T02:54:38.481Z,97586.69
2023-05-04T02:56:41.040Z,97594.53
2023-05-04T02:58:43.611Z,97586.75
2023-05-04T03:00:47.640Z,97576.38
2023-05-04T03:02:50.365Z,97592.88
2023-05-04T03:04:53.029Z,97586.91
2023-05-04T03:06:55.582Z,97584.22
2023-05-04T03:08:58.168Z,97590.44
2023-05-04T03:11:00.736Z,97583.66
2023-05-04T03:13:06.188Z,97592.19
2023-05-04T03:15:09.839Z,97588.00
2023-05-04T03:17:13.718Z,97592.44
2023-05-04T03:19:18.879Z,97595.91
2023-05-04T03:21:21.473Z,97587.25
2023-05-04T03:23:24.081Z,97592.72
2023-05-04T03:25:26.960Z,97597.66
2023-05-04T03:27:29.535Z,97585.63
2023-05-04T03:29:32.103Z,97590.09
2023-05-04T03:31:34.790Z,97594.50
2023-05-04T03:33:38.727Z,97596.31
2023-05-04T03:35:41.614Z,97602.50
2023-05-04T03:37:44.151Z,97594.56
2023-05-04T03:39:46.734Z,97598.16
2023-05-04T03:41:49.511Z,97592.94
2023-05-04T03:43:52.063Z,97588.66
2023-05-04T03:45:54.674Z,97590.34
2023-05-04T03:47:57.406Z,97589.56
2023-05-04T03:50:01.417Z,97584.38
2023-05-04T03:52:04.008Z,97591.41
2023-05-04T03:54:07.275Z,97590.50
2023-05-04T03:56:09.961Z,97581.97
2023-05-04T03:58:12.538Z,97596.81
2023-05-04T04:00:16.341Z,97592.59
2023-05-04T04:02:19.020Z,97582.28
2023-05-04T04:04:21.705Z,97582.41
2023-05-04T04:06:25.657Z,97584.94
2023-05-04T04:08:28.289Z,97582.44
2023-05-04T04:10:31.939Z,97580.84
2023-05-04T04:12:34.596Z,97580.94
2023-05-04T04:14:37.182Z,97578.41
2023-05-04T04:16:41.722Z,97571.41
2023-05-04T04:18:44.333Z,97576.59
2023-05-04T04:20:47.209Z,97576.59
2023-05-04T04:22:51.153Z,97583.44
2023-05-04T04:24:53.728Z,97579.22
2023-05-04T04:26:56.320Z,97583.63
2023-05-04T04:28:58.915Z,97580.13
2023-05-04T04:31:01.936Z,97581.81
2023-05-04T04:33:04.961Z,97579.22
2023-05-04T04:35:08.557Z,97584.25
2023-05-04T04:37:12.057Z,97581.75
2023-05-04T04:39:17.049Z,97581.75
2023-05-04T04:41:19.779Z,97582.63
2023-05-04T04:43:22.340Z,97580.88
2023-05-04T04:45:24.999Z,97574.81
2023-05-04T04:47:27.842Z,97576.53
2023-05-04T04:49:32.518Z,97576.53
2023-05-04T04:51:35.087Z,97569.59
2023-05-04T04:53:37.653Z,97576.59
2023-05-04T04:55:42.618Z,97574.81
2023-05-04T04:57:45.170Z,97570.41
2023-05-04T04:59:47.721Z,97573.94
2023-05-04T05:01:50.300Z,97568.50
2023-05-04T05:03:52.873Z,97571.97
2023-05-04T05:05:55.725Z,97570.09
2023-05-04T05:07:58.287Z,97563.91
2023-05-04T05:10:00.890Z,97564.81
2023-05-04T05:12:05.392Z,97559.66
2023-05-04T05:14:07.940Z,97559.56
2023-05-04T05:16:10.596Z,97559.44
2023-05-04T05:18:13.666Z,97560.31
2023-05-04T05:20:16.242Z,97554.16
2023-05-04T05:22:18.784Z,97553.25
2023-05-04T05:24:21.362Z,97552.25
2023-05-04T05:26:24.794Z,97546.06
2023-05-04T05:28:29.862Z,97551.16
2023-05-04T05:30:32.648Z,97547.66
2023-05-04T05:32:35.281Z,97542.34
2023-05-04T05:34:38.942Z,97549.28
2023-05-04T05:36:41.569Z,97549.97
2023-05-04T05:38:44.110Z,97550.72
2023-05-04T05:40:46.931Z,97553.16
2023-05-04T05:42:49.511Z,97558.13
2023-05-04T05:44:53.427Z,97552.84
2023-05-04T05:46:56.735Z,97559.63
2023-05-04T05:48:59.306Z,97549.13
2023-05-04T05:51:01.904Z,97550.69
2023-05-04T05:53:04.566Z,97546.28
2023-05-04T05:55:07.537Z,97550.53
2023-05-04T05:57:10.100Z,97544.28
2023-05-04T05:59:12.673Z,97556.38
2023-05-04T06:01:16.572Z,97559.81
2023-05-04T06:03:19.316Z,97543.22
2023-05-04T06:05:21.986Z,97556.22
2023-05-04T06:07:24.600Z,97558.72
2023-05-04T06:09:27.153Z,97556.00
2023-05-04T06:11:29.780Z,97558.56
2023-05-04T06:13:32.325Z,97548.91
2023-05-04T06:15:36.588Z,97552.28
2023-05-04T06:17:40.573Z,97552.22
2023-05-04T06:19:43.129Z,97557.31
2023-05-04T06:21:45.703Z,97552.88
2023-05-04T06:23:48.257Z,97553.69
2023-05-04T06:25:50.821Z,97552.72
2023-05-04T06:27:53.398Z,97554.06
2023-05-04T06:29:55.986Z,97554.19
2023-05-04T06:31:58.970Z,97550.69
2023-05-04T06:34:02.954Z,97545.47
2023-05-04T06:36:06.384Z,97549.69
2023-05-04T06:38:08.960Z,97546.97
2023-05-04T06:40:12.428Z,97548.63
2023-05-04T06:42:15.370Z,97542.41
2023-05-04T06:44:18.588Z,97541.41
2023-05-04T06:46:21.397Z,97547.28
2023-05-04T06:48:24.086Z,97545.41
2023-05-04T06:50:28.222Z,97549.56
2023-05-04T06:52:30.784Z,97549.44
2023-05-04T06:54:33.350Z,97543.19
2023-05-04T06:56:36.006Z,97541.38
2023-05-04T06:58:38.605Z,97544.72
2023-05-04T07:00:42.464Z,97548.94
2023-05-04T07:02:46.966Z,97556.59
2023-05-04T07:04:53.551Z,97557.25
2023-05-04T07:06:57.464Z,97560.63
2023-05-04T07:09:00.064Z,97556.88
2023-05-04T07:11:02.672Z,97561.94
2023-05-04T07:13:05.893Z,97557.25
2023-05-04T07:15:09.871Z,97557.97
2023-05-04T07:17:14.069Z,97560.44
2023-05-04T07:19:17.000Z,97557.72
2023-05-04T07:21:27.422Z,97554.06
2023-05-04T07:23:32.902Z,97547.72
2023-05-04T07:25:35.656Z,97552.72
2023-05-04T07:27:38.231Z,97549.03
2023-05-04T07:29:41.651Z,97548.88
2023-05-04T07:31:44.256Z,97549.59
2023-05-04T07:33:46.798Z,97541.53
2023-05-04T07:35:49.354Z,97545.75
2023-05-04T07:37:51.959Z,97542.09
2023-05-04T07:39:55.905Z,97544.53
2023-05-04T07:41:58.482Z,97538.31
2023-05-04T07:44:01.080Z,97541.59
2023-05-04T07:46:04.060Z,97534.44
2023-05-04T07:48:06.971Z,97533.41
2023-05-04T07:50:10.130Z,97533.19
2023-05-04T07:52:12.758Z,97538.22
2023-05-04T07:54:16.199Z,97543.34
2023-05-04T07:56:20.234Z,97534.41
2023-05-04T07:58:22.795Z,97540.28
2023-05-04T08:00:25.482Z,97539.25
2023-05-04T08:02:28.127Z,97537.41
2023-05-04T08:04:30.848Z,97542.44
2023-05-04T08:06:35.357Z,97533.59
2023-05-04T08:08:37.924Z,97535.13
2023-05-04T08:10:40.837Z,97537.31
2023-05-04T08:12:44.994Z,97535.28
2023-05-04T08:14:48.068Z,97527.03
2023-05-04T08:16:50.637Z,97533.50
2023-05-04T08:18:56.153Z,97515.28
2023-05-04T08:20:58.749Z,97513.50
2023-05-04T08:23:02.640Z,97517.78
2023-05-04T08:25:06.032Z,97515.91
2023-05-04T08:27:09.921Z,97506.97
2023-05-04T08:29:14.149Z,97506.00
2023-05-04T08:31:18.392Z,97511.78
2023-05-04T08:33:20.983Z,97509.09
2023-05-04T08:35:25.876Z,97512.50
2023-05-04T08:37:28.426Z,97508.78
2023-05-04T08:39:31.253Z,97501.63
2023-05-04T08:41:34.451Z,97501.50
2023-05-04T08:43:37.107Z,97496.63
2023-05-04T08:45:41.664Z,97501.63
2023-05-04T08:47:45.068Z,97503.09
2023-05-04T08:49:47.728Z,97503.88
2023-05-04T08:51:51.230Z,97500.31
2023-05-04T08:53:55.648Z,97498.47
2023-05-04T08:56:04.052Z,97500.13
2023-05-04T08:58:11.002Z,97498.63
2023-05-04T09:00:17.584Z,97488.16
2023-05-04T09:02:23.095Z,97495.94
2023-05-04T09:04:29.240Z,97498.19
2023-05-04T09:06:35.166Z,97492.84
2023-05-04T09:08:37.818Z,97493.53
2023-05-04T09:10:43.340Z,97485.41
2023-05-04T09:12:46.515Z,97485.06
2023-05-04T09:14:49.206Z,97480.69
2023-05-04T09:16:51.952Z,97474.63
2023-05-04T09:18:55.958Z,97476.50
2023-05-04T09:20:58.516Z,97472.22
2023-05-04T09:23:03.176Z,97469.59
2023-05-04T09:25:08.281Z,97467.31
2023-05-04T09:27:11.617Z,97463.66
2023-05-04T09:29:15.188Z,97461.19
2023-05-04T09:31:17.832Z,97462.47
2023-05-04T09:33:27.228Z,97468.66
2023-05-04T09:35:33.756Z,97461.09
2023-05-04T09:37:44.958Z,97461.47
2023-05-04T09:39:55.159Z,97458.13
2023-05-04T09:41:57.916Z,97452.41
2023-05-04T09:44:00.469Z,97453.66
2023-05-04T09:46:03.187Z,97456.44
2023-05-04T09:48:16.216Z,97455.28
2023-05-04T09:50:22.162Z,97448.31
2023-05-04T09:52:30.856Z,97445.94
2023-05-04T09:54:36.094Z,97455.72
2023-05-04T09:56:42.846Z,97448.75
2023-05-04T09:58:47.174Z,97454.19
2023-05-04T10:00:50.159Z,97448.38
2023-05-04T10:02:53.458Z,97456.66
2023-05-04T10:04:58.978Z,97447.56
2023-05-04T10:07:04.355Z,97446.88
2023-05-04T10:09:08.994Z,97451.88
2023-05-04T10:11:14.989Z,97457.34
2023-05-04T10:13:18.078Z,97450.22
2023-05-04T10:15:22.759Z,97446.81
2023-05-04T10:17:36.061Z,97440.53
2023-05-04T10:19:55.544Z,97444.09
2023-05-04T10:22:13.619Z,97448.94
2023-05-04T10:24:29.226Z,97448.22
2023-05-04T10:26:55.178Z,97447.97
2023-05-04T10:29:12.822Z,97442.59
2023-05-04T10:31:15.809Z,97431.97
2023-05-04T10:33:18.578Z,97429.44
2023-05-04T10:35:21.784Z,97428.41
2023-05-04T10:37:24.432Z,97423.41
2023-05-04T10:39:31.173Z,97426.19
2023-05-04T10:41:33.713Z,97423.88
2023-05-04T10:43:36.300Z,97426.19
2023-05-04T10:45:39.818Z,97418.31
2023-05-04T10:47:43.022Z,97420.44
2023-05-04T10:49:45.620Z,97413.94
2023-05-04T10:51:49.632Z,97410.41
2023-05-04T10:53:53.138Z,97410.69
2023-05-04T10:55:57.018Z,97404.38
2023-05-04T10:57:59.603Z,97407.69
2023-05-04T11:00:02.275Z,97402.72
2023-05-04T11:02:06.646Z,97399.03
2023-05-04T11:04:19.941Z,97397.78
2023-05-04T11:06:24.565Z,97389.44
2023-05-04T11:08:28.137Z,97387.53
2023-05-04T11:10:31.031Z,97388.44
2023-05-04T11:12:36.873Z,97381.81
2023-05-04T11:14:43.152Z,97384.28
2023-05-04T11:16:46.534Z,97377.13
2023-05-04T11:18:50.648Z,97374.19
2023-05-04T11:20:53.253Z,97376.34
2023-05-04T11:22:55.943Z,97370.25
2023-05-04T11:24:58.560Z,97373.50
2023-05-04T11:27:01.209Z,97372.34
2023-05-04T11:29:14.550Z,97363.25
2023-05-04T11:31:18.457Z,97363.69
2023-05-04T11:33:21.024Z,97371.06
2023-05-04T11:35:25.862Z,97364.59
2023-05-04T11:37:29.823Z,97361.00
2023-05-04T11:39:33.433Z,97365.72
2023-05-04T11:41:36.458Z,97363.31
2023-05-04T11:43:40.687Z,97358.63
2023-05-04T11:45:47.150Z,97356.94
2023-05-04T11:47:51.187Z,97346.97
2023-05-04T11:49:53.880Z,97349.50
2023-05-04T11:52:06.983Z,97349.94
2023-05-04T11:54:20.623Z,97350.75
2023-05-04T11:56:23.345Z,97346.44
2023-05-04T11:58:26.805Z,97355.53
2023-05-04T12:00:37.371Z,97345.72
2023-05-04T12:02:41.644Z,97345.91
2023-05-04T12:04:44.421Z,97353.59
2023-05-04T12:06:47.037Z,97344.72
2023-05-04T12:08:49.646Z,97339.47
2023-05-04T12:10:52.217Z,97345.25
2023-05-04T12:12:54.842Z,97341.78
2023-05-04T12:14:57.649Z,97335.81
2023-05-04T12:17:02.887Z,97340.22
2023-05-04T12:19:08.204Z,97340.63
2023-05-04T12:21:12.028Z,97342.75
2023-05-04T12:23:14.590Z,97338.41
2023-05-04T12:25:19.424Z,97336.16
2023-05-04T12:27:22.082Z,97341.03
2023-05-04T12:29:24.637Z,97329.06
2023-05-04T12:31:28.530Z,97331.97
2023-05-04T12:33:31.775Z,97329.94
2023-05-04T12:35:35.668Z,97335.66
2023-05-04T12:37:38.875Z,97330.69
2023-05-04T12:39:41.937Z,97329.38
2023-05-04T12:41:44.486Z,97330.25
2023-05-04T12:43:47.032Z,97328.56
2023-05-04T12:45:49.739Z,97328.53
2023-05-04T12:47:52.406Z,97320.91
2023-05-04T12:49:55.872Z,97321.41
2023-05-04T12:51:59.842Z,97317.78
2023-05-04T12:54:02.378Z,97315.75
2023-05-04T12:56:05.263Z,97305.06
2023-05-04T12:58:08.895Z,97295.78
2023-05-04T13:00:12.864Z,97301.06
2023-05-04T13:02:15.609Z,97300.06
2023-05-04T13:04:18.380Z,97294.41
2023-05-04T13:06:20.960Z,97294.25
2023-05-04T13:08:24.938Z,97286.22
2023-05-04T13:10:27.990Z,97284.41
2023-05-04T13:12:30.598Z,97280.81
2023-05-04T13:14:39.552Z,97283.66
2023-05-04T13:16:42.654Z,97279.63
2023-05-04T13:18:45.270Z,97277.88
2023-05-04T13:20:47.848Z,97278.66
2023-05-04T13:22:50.699Z,97272.44
2023-05-04T13:24:54.708Z,97256.22
2023-05-04T13:26:58.196Z,97256.97
2023-05-04T13:29:03.323Z,97252.06
2023-05-04T13:31:06.364Z,97248.63
2023-05-04T13:33:20.861Z,97243.13
2023-05-04T13:35:30.439Z,97239.59
2023-05-04T13:37:33.889Z,97244.94
2023-05-04T13:39:41.908Z,97235.31
2023-05-04T13:41:46.085Z,97240.72
2023-05-04T13:43:49.534Z,97239.06
2023-05-04T13:45:52.381Z,97235.63
2023-05-04T13:47:55.172Z,97239.75
2023-05-04T13:49:57.975Z,97233.56
2023-05-04T13:52:00.746Z,97226.72
2023-05-04T13:54:03.642Z,97228.63
2023-05-04T13:56:06.693Z,97215.41
2023-05-04T13:58:10.620Z,97217.44
2023-05-04T14:00:15.971Z,97218.13
2023-05-04T14:02:20.181Z,97215.91
2023-05-04T14:04:23.460Z,97212.75
2023-05-04T14:06:29.502Z,97209.00
2023-05-04T14:08:32.142Z,97209.72
2023-05-04T14:10:36.648Z,97203.63
2023-05-04T14:12:40.129Z,97197.47
2023-05-04T14:14:44.058Z,97196.41
2023-05-04T14:16:46.856Z,97194.53
2023-05-04T14:18:50.112Z,97190.00
2023-05-04T14:20:52.651Z,97183.28
2023-05-04T14:22:55.212Z,97178.88
2023-05-04T14:24:57.912Z,97175.59
2023-05-04T14:27:02.548Z,97175.84
2023-05-04T14:29:05.176Z,97175.34
2023-05-04T14:31:09.488Z,97167.94
2023-05-04T14:33:12.229Z,97163.84
2023-05-04T14:35:16.294Z,97158.34
2023-05-04T14:37:18.850Z,97154.84
2023-05-04T14:39:21.435Z,97160.44
2023-05-04T14:41:23.992Z,97166.81
2023-05-04T14:43:26.615Z,97164.84
2023-05-04T14:45:29.380Z,97161.47
2023-05-04T14:47:33.686Z,97158.59
2023-05-04T14:49:42.300Z,97155.78
2023-05-04T14:51:44.899Z,97149.31
2023-05-04T14:53:50.428Z,97151.84
2023-05-04T14:55:53.084Z,97146.47
2023-05-04T14:57:55.651Z,97134.59
2023-05-04T14:59:58.323Z,97139.97
2023-05-04T15:02:01.019Z,97143.47
2023-05-04T15:04:05.105Z,97141.13
2023-05-04T15:06:08.722Z,97141.13
2023-05-04T15:08:11.294Z,97128.41
2023-05-04T15:10:14.846Z,97143.81
2023-05-04T15:12:17.601Z,97137.47
2023-05-04T15:14:20.284Z,97126.25
2023-05-04T15:16:22.956Z,97126.09
2023-05-04T15:18:26.408Z,97130.59
2023-05-04T15:20:30.422Z,97129.13
2023-05-04T15:22:33.390Z,97132.81
2023-05-04T15:24:36.019Z,97127.94
2023-05-04T15:26:38.830Z,97125.94
2023-05-04T15:28:41.443Z,97123.44
2023-05-04T15:30:43.980Z,97117.25
2023-05-04T15:32:46.555Z,97118.38
2023-05-04T15:35:01.117Z,97125.59
2023-05-04T15:37:08.903Z,97118.91
2023-05-04T15:39:11.521Z,97121.41
2023-05-04T15:41:14.257Z,97123.06
2023-05-04T15:43:16.909Z,97127.72
2023-05-04T15:45:19.545Z,97129.22
2023-05-04T15:47:22.347Z,97136.41
2023-05-04T15:49:27.188Z,97136.41
2023-05-04T15:51:31.857Z,97140.09
2023-05-04T15:53:35.877Z,97139.41
2023-05-04T15:55:38.477Z,97136.38
2023-05-04T15:57:41.041Z,97141.03
2023-05-04T15:59:43.616Z,97146.56
2023-05-04T16:01:46.304Z,97137.06
2023-05-04T16:03:49.069Z,97143.00
2023-05-04T16:05:51.708Z,97142.28
2023-05-04T16:07:54.409Z,97138.06
2023-05-04T16:09:59.259Z,97145.38
2023-05-04T16:12:02.291Z,97139.19
2023-05-04T16:14:05.043Z,97144.34
2023-05-04T16:16:08.825Z,97137.53
2023-05-04T16:18:11.478Z,97133.47
2023-05-04T16:20:14.120Z,97132.19
2023-05-04T16:22:16.674Z,97132.41
2023-05-04T16:24:19.324Z,97136.75
2023-05-04T16:26:23.219Z,97133.22
2023-05-04T16:28:25.782Z,97125.47
2023-05-04T16:30:32.625Z,97130.56
2023-05-04T16:32:35.197Z,97125.34
2023-05-04T16:34:37.795Z,97119.63
2023-05-04T16:36:40.358Z,97121.63
2023-05-04T16:38:43.064Z,97115.22
2023-05-04T16:40:46.088Z,97119.34
2023-05-04T16:42:49.990Z,97113.09
2023-05-04T16:44:54.962Z,97106.44
2023-05-04T16:46:57.698Z,97108.22
2023-05-04T16:49:00.306Z,97110.03
2023-05-04T16:51:02.834Z,97112.56
2023-05-04T16:53:05.406Z,97105.00
2023-05-04T16:55:11.813Z,97104.78
2023-05-04T16:57:15.286Z,97110.28
2023-05-04T16:59:19.185Z,97109.13
2023-05-04T17:01:21.808Z,97112.94
2023-05-04T17:03:24.467Z,97100.38
2023-05-04T17:05:27.073Z,97103.88
2023-05-04T17:07:29.665Z,97104.84
2023-05-04T17:09:32.252Z,97109.50
2023-05-04T17:11:34.951Z,97110.41
2023-05-04T17:13:37.764Z,97103.75
2023-05-04T17:15:41.720Z,97101.94
2023-05-04T17:17:44.321Z,97096.94
2023-05-04T17:19:46.924Z,97107.63
2023-05-04T17:21:49.511Z,97098.69
2023-05-04T17:23:52.046Z,97107.22
2023-05-04T17:25:56.388Z,97103.63
2023-05-04T17:27:59.015Z,97100.31
2023-05-04T17:30:01.586Z,97095.03
2023-05-04T17:32:06.011Z,97092.38
2023-05-04T17:34:08.633Z,97093.09
2023-05-04T17:36:12.116Z,97096.78
2023-05-04T17:38:14.904Z,97098.59
2023-05-04T17:40:17.521Z,97098.88
2023-05-04T17:42:20.086Z,97098.88
2023-05-04T17:44:24.714Z,97098.75
2023-05-04T17:46:27.420Z,97103.94
2023-05-04T17:48:32.026Z,97103.09
2023-05-04T17:50:34.638Z,97106.72
2023-05-04T17:52:37.573Z,97105.50
2023-05-04T17:54:40.299Z,97106.63
2023-05-04T17:56:42.946Z,97100.75
2023-05-04T17:58:45.542Z,97102.16
2023-05-04T18:00:49.549Z,97107.88
2023-05-04T18:02:53.960Z,97105.78
2023-05-04T18:04:57.870Z,97108.31
2023-05-04T18:07:00.463Z,97107.88
2023-05-04T18:09:03.624Z,97106.47
2023-05-04T18:11:06.307Z,97118.16
2023-05-04T18:13:08.939Z,97119.28
2023-05-04T18:15:11.914Z,97122.47
2023-05-04T18:17:14.600Z,97118.16
2023-05-04T18:19:23.696Z,97122.91
2023-05-04T18:21:27.680Z,97129.00
2023-05-04T18:23:30.271Z,97134.47
2023-05-04T18:25:33.390Z,97122.84
2023-05-04T18:27:36.333Z,97130.94
2023-05-04T18:29:39.017Z,97133.69
2023-05-04T18:31:41.616Z,97129.72
2023-05-04T18:33:44.209Z,97135.31
2023-05-04T18:35:46.764Z,97141.25
2023-05-04T18:37:50.872Z,97146.25
2023-05-04T18:41:58.319Z,97147.16
2023-05-04T18:44:01.223Z,97154.53
2023-05-04T18:46:08.208Z,97151.56
2023-05-04T18:48:10.962Z,97156.56
2023-05-04T18:50:13.798Z,97156.81
2023-05-04T18:52:16.346Z,97161.53
2023-05-04T18:54:20.241Z,97166.38
2023-05-04T18:56:22.809Z,97164.50
2023-05-04T18:58:25.622Z,97175.72
2023-05-04T19:00:28.691Z,97169.97
2023-05-04T19:02:31.549Z,97172.38
2023-05-04T19:04:34.333Z,97175.53
2023-05-04T19:06:40.234Z,97176.75
2023-05-04T19:08:42.836Z,97186.53
2023-05-04T19:10:46.916Z,97183.03
2023-05-04T19:12:51.720Z,97186.88
2023-05-04T19:14:55.190Z,97189.25
2023-05-04T19:16:57.948Z,97189.28
2023-05-04T19:19:00.584Z,97193.34
2023-05-04T19:21:05.358Z,97193.34
2023-05-04T19:23:10.042Z,97195.63
2023-05-04T19:25:20.325Z,97192.53
2023-05-04T19:27:31.196Z,97198.34
2023-05-04T19:29:33.792Z,97202.41
2023-05-04T19:31:36.545Z,97204.72
2023-05-04T19:33:47.944Z,97205.69
2023-05-04T19:35:51.675Z,97205.94
2023-05-04T19:37:54.322Z,97220.97
2023-05-04T19:39:57.776Z,97215.59
2023-05-04T19:42:00.922Z,97221.38
2023-05-04T19:44:07.867Z,97217.03
2023-05-04T19:46:10.493Z,97217.03
2023-05-04T19:48:16.277Z,97226.16
2023-05-04T19:50:19.218Z,97231.03
2023-05-04T19:52:21.830Z,97228.16
2023-05-04T19:54:24.478Z,97228.84
2023-05-04T19:56:27.016Z,97231.88
2023-05-04T19:58:30.863Z,97235.13
2023-05-04T20:00:34.896Z,97235.84
2023-05-04T20:02:38.072Z,97237.75
2023-05-04T20:04:40.832Z,97240.53
2023-05-04T20:06:43.372Z,97238.38
2023-05-04T20:08:46.153Z,97246.66
2023-05-04T20:10:48.760Z,97248.84
2023-05-04T20:12:51.318Z,97249.06
2023-05-04T20:14:53.890Z,97245.72
2023-05-04T20:16:57.925Z,97248.47
2023-05-04T20:19:03.426Z,97248.38
2023-05-04T20:21:06.402Z,97244.50
2023-05-04T20:23:09.253Z,97238.72
2023-05-04T20:25:11.915Z,97245.41
2023-05-04T20:27:14.471Z,97239.38
2023-05-04T20:29:17.044Z,97237.47
2023-05-04T20:31:19.622Z,97238.41
2023-05-04T20:33:23.558Z,97246.38
2023-05-04T20:35:26.223Z,97240.13
2023-05-04T20:37:28.790Z,97237.19
2023-05-04T20:39:31.473Z,97243.22
2023-05-04T20:41:34.085Z,97239.13
2023-05-04T20:43:36.701Z,97238.06
2023-05-04T20:45:39.271Z,97239.47
2023-05-04T20:47:41.841Z,97243.09
2023-05-04T20:49:45.820Z,97235.97
2023-05-04T20:51:48.379Z,97231.72
2023-05-04T20:53:50.990Z,97234.25
2023-05-04T20:55:53.563Z,97237.75
2023-05-04T20:57:56.189Z,97227.66
2023-05-04T20:59:58.945Z,97223.69
2023-05-04T21:02:01.498Z,97232.72
2023-05-04T21:04:04.167Z,97233.88
2023-05-04T21:06:08.239Z,97225.84
2023-05-04T21:08:10.800Z,97217.66
2023-05-04T21:10:13.375Z,97219.84
2023-05-04T21:12:16.327Z,97217.28
2023-05-04T21:14:18.893Z,97224.28
2023-05-04T21:16:21.606Z,97226.16
2023-05-04T21:18:24.169Z,97220.16
2023-05-04T21:20:26.889Z,97224.97
2023-05-04T21:22:30.892Z,97222.06
2023-05-04T21:24:33.464Z,97219.88
2023-05-04T21:26:36.146Z,97233.81
2023-05-04T21:28:38.797Z,97229.63
2023-05-04T21:30:42.301Z,97229.81
2023-05-04T21:32:44.915Z,97225.25
2023-05-04T21:34:52.404Z,97220.16
2023-05-04T21:36:54.931Z,97226.38
2023-05-04T21:38:59.098Z,97226.06
2023-05-04T21:41:10.939Z,97228.09
2023-05-04T21:43:13.372Z,97224.16
2023-05-04T21:45:15.935Z,97220.59
2023-05-04T21:47:18.495Z,97218.38
2023-05-04T21:49:21.067Z,97216.44
2023-05-04T21:51:23.611Z,97222.72
2023-05-04T21:53:26.215Z,97224.41
2023-05-04T21:55:31.277Z,97219.69
2023-05-04T21:57:33.885Z,97218.97
2023-05-04T21:59:36.464Z,97233.25
2023-05-04T22:01:39.022Z,97224.13
2023-05-04T22:03:41.695Z,97231.72
2023-05-04T22:05:52.687Z,97225.72
2023-05-04T22:07:55.252Z,97228.97
2023-05-04T22:09:57.824Z,97226.03
2023-05-04T22:12:02.192Z,97230.69
2023-05-04T22:14:04.739Z,97233.22
2023-05-04T22:16:09.423Z,97233.19
2023-05-04T22:18:12.249Z,97234.72
2023-05-04T22:20:15.076Z,97229.75
2023-05-04T22:22:17.686Z,97225.94
2023-05-04T22:24:20.725Z,97229.44
2023-05-04T22:26:23.275Z,97226.66
2023-05-04T22:28:27.311Z,97234.72
2023-05-04T22:30:30.183Z,97227.63
2023-05-04T22:32:32.800Z,97228.69
2023-05-04T22:34:35.544Z,97229.66
2023-05-04T22:36:38.095Z,97233.56
2023-05-04T22:38:40.687Z,97234.59
2023-05-04T22:40:43.793Z,97237.88
2023-05-04T22:42:46.429Z,97239.59
2023-05-04T22:44:50.345Z,97237.38
2023-05-04T22:46:52.918Z,97243.84
2023-05-04T22:48:55.493Z,97242.00
2023-05-04T22:50:58.066Z,97250.56
2023-05-04T22:53:00.748Z,97238.56
2023-05-04T22:55:03.747Z,97246.03
2023-05-04T22:57:06.678Z,97246.13
2023-05-04T22:59:09.236Z,97242.84
2023-05-04T23:01:13.171Z,97242.34
2023-05-04T23:03:15.882Z,97240.84
2023-05-04T23:05:18.795Z,97249.81
2023-05-04T23:07:21.370Z,97249.31
2023-05-04T23:09:23.985Z,97256.69
2023-05-04T23:11:26.529Z,97254.06
2023-05-04T23:13:29.087Z,97248.16
2023-05-04T23:15:32.681Z,97249.22
2023-05-04T23:17:38.470Z,97255.31
2023-05-04T23:19:41.134Z,97252.59
2023-05-04T23:21:43.682Z,97250.16
2023-05-04T23:23:46.245Z,97256.50
2023-05-04T23:25:48.831Z,97248.78
2023-05-04T23:27:51.418Z,97259.34
2023-05-04T23:29:54.283Z,97261.16
2023-05-04T23:31:56.944Z,97255.03
2023-05-04T23:34:01.009Z,97264.84
2023-05-04T23:36:03.644Z,97261.16
2023-05-04T23:38:06.246Z,97268.31
2023-05-04T23:40:10.338Z,97260.50
2023-05-04T23:42:13.063Z,97264.63
2023-05-04T23:44:16.429Z,97261.53
2023-05-04T23:46:19.054Z,97257.31
2023-05-04T23:48:21.609Z,97262.06
2023-05-04T23:50:25.619Z,97264.16
2023-05-04T23:52:28.181Z,97260.50
2023-05-04T23:54:31.046Z,97263.00
2023-05-04T23:56:33.608Z,97262.06
2023-05-04T23:58:37.147Z,97264.72
